Time;durP1;ratioP1;P1;durP2;ratioP2;P2;SDS_P1;SDS_P2;PMS_P1;PMS_P2;Temp;Humidity;BMP_temperature;BMP_pressure;BME280_temperature;BME280_humidity;BME280_pressure;Samples;Min_cycle;Max_cycle;Signal;HPM_P1;HPM_P2
2020/12/01 00:01:35;;;;;;;16.63;11.57;;;1.80;99.90;;;;;;5057535;28;20177;-75
2020/12/01 00:04:01;;;;;;;20.80;12.37;;;1.80;99.90;;;;;;5054076;28;20261;-76
2020/12/01 00:06:30;;;;;;;18.30;11.77;;;1.80;99.90;;;;;;5055291;28;20178;-76
2020/12/01 00:08:56;;;;;;;20.98;13.80;;;1.80;99.90;;;;;;5053141;28;20186;-76
2020/12/01 00:11:21;;;;;;;19.17;11.67;;;1.80;99.90;;;;;;5057491;28;20235;-75
2020/12/01 00:13:47;;;;;;;17.00;11.90;;;1.80;99.90;;;;;;5053730;28;20233;-75
2020/12/01 00:16:14;;;;;;;21.97;12.87;;;1.80;99.90;;;;;;5050060;28;20213;-76
2020/12/01 00:18:40;;;;;;;19.45;10.50;;;1.80;99.90;;;;;;5053706;28;20213;-76
2020/12/01 00:21:11;;;;;;;19.20;13.10;;;1.80;99.90;;;;;;5051978;28;20225;-76
2020/12/01 00:23:37;;;;;;;21.05;12.68;;;1.80;99.90;;;;;;5053181;28;20440;-76
2020/12/01 00:26:02;;;;;;;18.90;13.17;;;1.80;99.90;;;;;;5049315;28;20646;-76
2020/12/01 00:28:28;;;;;;;21.07;12.07;;;1.80;99.90;;;;;;5050584;28;20483;-75
2020/12/01 00:30:53;;;;;;;17.90;11.33;;;1.80;99.90;;;;;;5045384;28;20194;-75
2020/12/01 00:33:19;;;;;;;16.53;11.57;;;1.80;99.90;;;;;;5052953;28;20179;-75
2020/12/01 00:35:44;;;;;;;25.53;14.17;;;1.80;99.90;;;;;;5052648;28;20182;-75
2020/12/01 00:38:10;;;;;;;22.93;13.73;;;1.80;99.90;;;;;;5050693;28;20705;-75
2020/12/01 00:40:36;;;;;;;18.38;12.73;;;1.80;99.90;;;;;;5047436;28;20274;-75
2020/12/01 00:43:02;;;;;;;17.80;12.60;;;1.80;99.90;;;;;;5053746;28;20273;-74
2020/12/01 00:45:27;;;;;;;19.67;12.80;;;1.80;99.90;;;;;;5052926;28;20262;-74
2020/12/01 00:47:53;;;;;;;19.23;11.77;;;1.80;99.90;;;;;;5049760;28;20226;-74
2020/12/01 00:50:21;;;;;;;20.40;12.23;;;1.80;99.90;;;;;;5053916;28;20183;-74
2020/12/01 00:52:47;;;;;;;20.30;12.30;;;1.80;99.90;;;;;;5052581;28;20182;-74
2020/12/01 00:55:13;;;;;;;22.27;13.00;;;1.80;99.90;;;;;;5051688;28;20657;-75
2020/12/01 00:57:38;;;;;;;18.30;13.77;;;1.80;99.90;;;;;;5052782;28;20187;-74
2020/12/01 01:00:11;;;;;;;16.40;12.60;;;1.80;99.90;;;;;;5055034;28;20194;-73
2020/12/01 01:02:36;;;;;;;21.48;13.65;;;1.80;99.90;;;;;;5052338;28;20179;-74
2020/12/01 01:05:02;;;;;;;22.87;12.60;;;1.80;99.90;;;;;;5050233;28;20189;-74
2020/12/01 01:07:28;;;;;;;24.42;14.05;;;1.80;99.90;;;;;;5052532;28;20197;-74
2020/12/01 01:09:53;;;;;;;20.53;13.43;;;1.80;99.90;;;;;;5049543;28;20187;-73
2020/12/01 01:12:19;;;;;;;18.17;11.60;;;1.80;99.90;;;;;;5044214;28;20192;-74
2020/12/01 01:14:44;;;;;;;18.80;12.00;;;1.80;99.90;;;;;;5049447;28;20171;-74
2020/12/01 01:17:10;;;;;;;20.77;13.57;;;1.80;99.90;;;;;;5050334;28;20193;-74
2020/12/01 01:19:35;;;;;;;17.37;11.67;;;1.80;99.90;;;;;;5050133;28;20218;-73
2020/12/01 01:22:01;;;;;;;24.43;13.93;;;1.80;99.90;;;;;;5051858;28;20269;-74
2020/12/01 01:24:26;;;;;;;21.27;12.67;;;1.80;99.90;;;;;;5051665;28;20540;-74
2020/12/01 01:26:54;;;;;;;17.97;11.40;;;1.80;99.90;;;;;;5054547;28;20606;-74
2020/12/01 01:29:21;;;;;;;20.60;12.80;;;1.80;99.90;;;;;;5050713;28;20726;-74
2020/12/01 01:31:46;;;;;;;22.60;13.20;;;1.80;99.90;;;;;;5049401;28;20186;-74
2020/12/01 01:34:12;;;;;;;19.43;11.90;;;1.80;99.90;;;;;;5048811;28;20189;-74
2020/12/01 01:36:38;;;;;;;28.33;13.38;;;1.80;99.90;;;;;;5054330;28;20178;-74
2020/12/01 01:39:06;;;;;;;22.33;12.80;;;1.80;99.90;;;;;;5049204;28;20227;-74
2020/12/01 01:41:33;;;;;;;20.05;12.45;;;1.80;99.90;;;;;;5058264;28;20551;-74
2020/12/01 01:43:59;;;;;;;19.48;12.15;;;1.80;99.90;;;;;;5050013;28;20194;-73
2020/12/01 01:46:41;;;;;;;21.50;13.33;;;1.80;99.90;;;;;;5049922;28;20265;-74
2020/12/01 01:49:13;;;;;;;22.42;12.23;;;1.80;99.90;;;;;;5083746;28;20752;-73
2020/12/01 01:51:42;;;;;;;20.88;12.65;;;1.80;99.90;;;;;;5051879;28;20215;-74
2020/12/01 01:54:09;;;;;;;22.13;12.07;;;1.80;99.90;;;;;;5052049;28;20178;-74
2020/12/01 01:56:39;;;;;;;21.05;13.52;;;1.80;99.90;;;;;;5055119;28;20664;-74
2020/12/01 01:59:06;;;;;;;22.92;12.80;;;1.80;99.90;;;;;;5050773;28;20218;-73
2020/12/01 02:01:32;;;;;;;21.65;12.93;;;1.90;99.90;;;;;;5051432;28;20189;-73
2020/12/01 02:04:02;;;;;;;19.40;12.00;;;1.90;99.90;;;;;;5051423;28;20182;-73
2020/12/01 02:06:34;;;;;;;27.00;13.95;;;1.90;99.90;;;;;;5051495;28;20660;-74
2020/12/01 02:09:05;;;;;;;22.75;13.63;;;1.90;99.90;;;;;;5047419;28;20643;-74
2020/12/01 02:11:32;;;;;;;18.63;11.90;;;1.90;99.90;;;;;;5049238;28;20219;-74
2020/12/01 02:14:22;;;;;;;18.40;12.38;;;1.90;99.90;;;;;;5053517;28;20646;-74
2020/12/01 02:16:56;;;;;;;19.90;13.30;;;1.90;99.90;;;;;;5083051;28;20650;-74
2020/12/01 02:19:26;;;;;;;19.55;12.77;;;1.90;99.90;;;;;;5051407;28;20223;-74
2020/12/01 02:21:53;;;;;;;21.20;12.45;;;1.90;99.90;;;;;;5051546;28;20186;-73
2020/12/01 02:24:21;;;;;;;26.15;12.48;;;1.90;99.90;;;;;;5058318;28;20240;-73
2020/12/01 02:26:50;;;;;;;25.90;14.98;;;1.90;99.90;;;;;;5049805;28;20671;-74
2020/12/01 02:29:18;;;;;;;26.35;12.55;;;1.90;99.90;;;;;;5050504;28;20278;-74
2020/12/01 02:31:44;;;;;;;24.17;11.98;;;1.90;99.90;;;;;;5042588;28;20554;-74
2020/12/01 02:34:13;;;;;;;18.63;12.20;;;1.90;99.90;;;;;;5048110;28;20185;-74
2020/12/01 02:36:39;;;;;;;18.17;11.25;;;1.90;99.90;;;;;;5050577;28;20522;-74
2020/12/01 02:39:06;;;;;;;20.33;11.70;;;1.90;99.90;;;;;;5046948;28;20267;-73
2020/12/01 02:41:32;;;;;;;21.08;12.52;;;1.90;99.90;;;;;;5047539;28;20190;-74
2020/12/01 02:43:58;;;;;;;20.30;11.83;;;1.90;99.90;;;;;;5050076;28;20183;-74
2020/12/01 02:46:23;;;;;;;19.70;11.87;;;1.90;99.90;;;;;;5049506;28;20210;-74
2020/12/01 02:48:49;;;;;;;21.30;12.80;;;2.00;99.90;;;;;;5046466;28;20998;-74
2020/12/01 02:51:15;;;;;;;23.00;10.57;;;1.90;99.90;;;;;;5052577;28;20715;-73
2020/12/01 02:53:40;;;;;;;20.98;12.13;;;1.90;99.90;;;;;;5056108;28;20189;-74
2020/12/01 02:56:06;;;;;;;18.77;11.77;;;1.90;99.90;;;;;;5053163;28;20182;-74
2020/12/01 02:58:31;;;;;;;19.00;12.10;;;1.90;99.90;;;;;;5054824;28;20206;-74
2020/12/01 03:00:57;;;;;;;19.90;11.40;;;1.90;99.90;;;;;;5052881;28;20555;-74
2020/12/01 03:03:22;;;;;;;17.30;10.10;;;1.90;99.90;;;;;;5054802;28;20180;-74
2020/12/01 03:05:48;;;;;;;22.53;10.87;;;1.90;99.90;;;;;;5054680;28;20190;-74
2020/12/01 03:08:14;;;;;;;21.77;12.30;;;1.90;99.90;;;;;;5054252;28;20194;-74
2020/12/01 03:10:39;;;;;;;24.30;12.67;;;1.90;99.90;;;;;;5054725;28;20240;-74
2020/12/01 03:13:05;;;;;;;24.07;12.03;;;1.90;99.90;;;;;;5056809;28;20448;-74
2020/12/01 03:15:30;;;;;;;18.53;11.63;;;1.90;99.90;;;;;;5050683;28;20194;-74
2020/12/01 03:17:56;;;;;;;20.00;11.10;;;1.90;99.90;;;;;;5054346;28;20264;-74
2020/12/01 03:20:21;;;;;;;24.90;11.70;;;1.90;99.90;;;;;;5054947;28;20194;-74
2020/12/01 03:22:47;;;;;;;17.27;10.50;;;1.90;99.90;;;;;;5058615;28;20188;-74
2020/12/01 03:25:12;;;;;;;18.13;11.13;;;1.80;99.90;;;;;;5053267;28;20225;-74
2020/12/01 03:27:38;;;;;;;22.20;12.40;;;1.90;99.90;;;;;;5052627;28;20187;-74
2020/12/01 03:30:05;;;;;;;19.50;11.40;;;1.90;99.90;;;;;;5054147;28;20198;-74
2020/12/01 03:32:31;;;;;;;17.00;10.05;;;1.90;99.90;;;;;;5053787;28;20638;-75
2020/12/01 03:34:57;;;;;;;21.03;12.23;;;1.90;99.90;;;;;;5054155;28;20186;-75
2020/12/01 03:37:22;;;;;;;23.90;14.00;;;1.90;99.90;;;;;;5052721;28;20189;-76
2020/12/01 03:39:48;;;;;;;19.07;10.70;;;1.90;99.90;;;;;;5053012;28;20248;-75
2020/12/01 03:42:13;;;;;;;22.57;12.90;;;1.90;99.90;;;;;;5057014;28;20183;-76
2020/12/01 03:44:39;;;;;;;20.93;11.73;;;1.90;99.90;;;;;;5053955;28;20192;-76
2020/12/01 03:47:04;;;;;;;23.27;12.70;;;1.90;99.90;;;;;;5057990;28;20218;-76
2020/12/01 03:49:30;;;;;;;18.13;11.23;;;1.90;99.90;;;;;;5054105;28;20191;-76
2020/12/01 03:51:55;;;;;;;23.40;12.10;;;1.90;99.90;;;;;;5051840;28;20265;-76
2020/12/01 03:54:21;;;;;;;21.60;12.50;;;1.90;99.90;;;;;;5053986;28;20683;-77
2020/12/01 03:56:46;;;;;;;19.07;11.50;;;1.90;99.90;;;;;;5057790;28;20198;-77
2020/12/01 03:59:12;;;;;;;21.67;12.37;;;1.90;99.90;;;;;;5051930;28;20230;-76
2020/12/01 04:01:37;;;;;;;17.10;10.87;;;1.90;99.90;;;;;;5053303;28;20266;-76
2020/12/01 04:04:03;;;;;;;19.27;10.40;;;1.90;99.90;;;;;;5053645;28;20198;-76
2020/12/01 04:06:28;;;;;;;23.27;12.23;;;1.90;99.90;;;;;;5052941;28;20229;-76
2020/12/01 04:08:54;;;;;;;18.60;12.23;;;1.90;99.90;;;;;;5053343;28;20301;-76
2020/12/01 04:11:19;;;;;;;17.20;10.27;;;1.90;99.90;;;;;;5055540;28;20702;-76
2020/12/01 04:13:45;;;;;;;27.83;13.63;;;1.90;99.90;;;;;;5052220;28;20210;-76
2020/12/01 04:16:10;;;;;;;20.03;11.90;;;1.90;99.90;;;;;;5053168;28;20193;-76
2020/12/01 04:18:36;;;;;;;16.70;10.80;;;1.90;99.90;;;;;;5052673;28;20670;-76
2020/12/01 04:21:01;;;;;;;28.07;14.37;;;1.90;99.90;;;;;;5051330;28;20213;-75
2020/12/01 04:23:27;;;;;;;20.93;11.57;;;2.00;99.90;;;;;;5051651;28;20182;-76
2020/12/01 04:25:52;;;;;;;24.43;13.00;;;2.00;99.90;;;;;;5051597;28;20183;-75
2020/12/01 04:28:18;;;;;;;21.20;11.87;;;2.00;99.90;;;;;;5049450;28;20191;-75
2020/12/01 04:30:43;;;;;;;19.07;11.17;;;2.00;99.90;;;;;;5050330;28;20182;-76
2020/12/01 04:33:09;;;;;;;16.27;10.63;;;2.00;99.90;;;;;;5051840;28;20530;-76
2020/12/01 04:35:35;;;;;;;21.10;11.83;;;2.00;99.90;;;;;;5050866;28;20672;-75
2020/12/01 04:38:05;;;;;;;23.20;12.50;;;1.90;99.90;;;;;;5053226;28;20206;-75
2020/12/01 04:40:35;;;;;;;20.80;11.15;;;1.90;99.90;;;;;;5052287;28;20262;-76
2020/12/01 04:43:32;;;;;;;22.10;10.73;;;1.90;99.90;;;;;;5051837;28;20735;-76
2020/12/01 04:46:00;;;;;;;17.55;11.15;;;2.00;99.90;;;;;;5047457;28;20190;-76
2020/12/01 04:48:44;;;;;;;18.42;11.15;;;1.90;99.90;;;;;;5051507;28;20230;-75
2020/12/01 04:51:34;;;;;;;20.02;10.93;;;2.00;99.90;;;;;;5048062;28;20187;-75
2020/12/01 04:54:37;;;;;;;19.70;12.20;;;2.00;99.90;;;;;;5078640;28;20603;-75
2020/12/01 04:57:35;;;;;;;19.50;10.32;;;2.00;99.90;;;;;;5044884;28;20194;-76
2020/12/01 05:00:08;;;;;;;19.08;10.38;;;2.00;99.90;;;;;;5054990;28;20697;-75
2020/12/01 05:02:50;;;;;;;19.88;10.65;;;2.00;99.90;;;;;;5047912;28;20178;-76
2020/12/01 05:05:57;;;;;;;18.45;10.10;;;2.00;99.90;;;;;;5047582;28;20198;-76
2020/12/01 05:08:49;;;;;;;24.77;10.85;;;2.00;99.90;;;;;;5081777;28;20212;-75
2020/12/01 05:11:35;;;;;;;20.52;10.60;;;2.00;99.90;;;;;;5043333;28;20195;-75
2020/12/01 05:14:25;;;;;;;21.13;10.23;;;2.00;99.90;;;;;;5051608;28;20185;-76
2020/12/01 05:17:01;;;;;;;17.23;9.65;;;2.00;99.90;;;;;;5055778;28;20332;-75
2020/12/01 05:19:41;;;;;;;18.63;11.30;;;2.00;99.90;;;;;;5081153;28;20268;-75
2020/12/01 05:22:08;;;;;;;18.20;12.55;;;2.00;99.90;;;;;;5051594;28;20672;-75
2020/12/01 05:24:42;;;;;;;25.25;13.52;;;2.00;99.90;;;;;;5052240;28;20187;-75
2020/12/01 05:27:31;;;;;;;23.70;13.35;;;2.00;99.90;;;;;;5056985;28;20185;-75
2020/12/01 05:30:10;;;;;;;26.13;12.60;;;2.00;99.90;;;;;;5052204;28;20209;-75
2020/12/01 05:32:42;;;;;;;18.83;11.65;;;2.00;99.90;;;;;;5047582;28;20186;-75
2020/12/01 05:35:19;;;;;;;17.60;11.02;;;2.10;99.90;;;;;;5051916;28;20182;-75
2020/12/01 05:38:01;;;;;;;18.67;11.15;;;2.10;99.90;;;;;;5050279;28;20185;-75
2020/12/01 05:40:30;;;;;;;19.65;12.30;;;2.10;99.90;;;;;;5056006;28;20199;-75
2020/12/01 05:42:56;;;;;;;19.42;12.15;;;2.10;99.90;;;;;;5051293;28;20187;-75
2020/12/01 05:45:30;;;;;;;17.63;10.97;;;2.10;99.90;;;;;;5053350;28;20680;-75
2020/12/01 05:48:28;;;;;;;20.65;12.43;;;2.10;99.90;;;;;;5049564;28;20318;-74
2020/12/01 05:51:15;;;;;;;20.20;13.23;;;2.10;99.90;;;;;;5045641;28;20563;-74
2020/12/01 05:53:41;;;;;;;20.13;11.38;;;2.10;99.90;;;;;;5050584;28;21554;-74
2020/12/01 05:56:20;;;;;;;22.25;12.32;;;2.10;99.90;;;;;;5047347;28;20626;-74
2020/12/01 05:58:56;;;;;;;23.35;12.93;;;2.10;99.90;;;;;;5051954;28;20271;-74
2020/12/01 06:01:21;;;;;;;26.42;12.88;;;2.20;99.90;;;;;;5047828;28;20210;-74
2020/12/01 06:04:04;;;;;;;21.00;12.27;;;2.10;99.90;;;;;;5051463;28;21715;-74
2020/12/01 06:07:04;;;;;;;22.52;10.90;;;2.20;99.90;;;;;;5046434;28;20183;-81
2020/12/01 06:09:47;;;;;;;22.88;13.45;;;2.20;99.90;;;;;;5055564;28;20188;-74
2020/12/01 06:12:29;;;;;;;18.50;11.07;;;2.20;99.90;;;;;;5042076;28;20204;-74
2020/12/01 06:15:01;;;;;;;18.38;10.85;;;2.20;99.90;;;;;;5058030;28;20712;-75
2020/12/01 06:18:25;;;;;;;20.00;10.68;;;2.20;99.90;;;;;;5054971;28;20185;-73
2020/12/01 06:21:00;;;;;;;17.58;9.77;;;2.20;99.90;;;;;;5062578;28;20665;-73
2020/12/01 06:23:32;;;;;;;28.65;15.43;;;2.20;99.90;;;;;;5070026;28;20259;-73
2020/12/01 06:26:33;;;;;;;24.60;15.45;;;2.20;99.90;;;;;;5057356;28;20206;-73
2020/12/01 06:29:10;;;;;;;24.63;12.73;;;2.20;99.90;;;;;;5055341;28;20550;-73
2020/12/01 06:31:47;;;;;;;16.27;10.88;;;2.20;99.90;;;;;;5053824;28;20186;-73
2020/12/01 06:34:28;;;;;;;17.58;9.60;;;2.20;99.90;;;;;;5054711;28;20544;-74
2020/12/01 06:37:18;;;;;;;13.68;9.20;;;2.20;99.90;;;;;;5051637;28;20182;-73
2020/12/01 06:40:00;;;;;;;16.27;9.32;;;2.30;99.90;;;;;;5060990;28;20262;-73
2020/12/01 06:42:43;;;;;;;17.92;10.80;;;2.30;99.90;;;;;;5053626;28;20186;-73
2020/12/01 06:45:34;;;;;;;16.75;8.82;;;2.30;99.90;;;;;;5054744;28;20214;-73
2020/12/01 06:48:06;;;;;;;15.20;9.32;;;2.30;99.90;;;;;;5049412;28;20227;-73
2020/12/01 06:50:34;;;;;;;19.23;8.50;;;2.30;99.90;;;;;;5053877;28;20191;-74
2020/12/01 06:53:03;;;;;;;16.30;10.18;;;2.30;99.90;;;;;;5051412;28;20273;-73
2020/12/01 06:55:56;;;;;;;11.02;8.32;;;2.30;99.90;;;;;;5053872;28;20178;-73
2020/12/01 06:58:39;;;;;;;15.68;8.50;;;2.30;99.90;;;;;;5051984;28;20210;-73
2020/12/01 07:01:15;;;;;;;12.63;7.78;;;2.30;99.90;;;;;;5053261;28;20186;-73
2020/12/01 07:03:41;;;;;;;12.60;8.45;;;2.30;99.90;;;;;;5050899;28;20175;-74
2020/12/01 07:06:17;;;;;;;16.43;9.13;;;2.30;99.90;;;;;;5054882;28;20191;-73
2020/12/01 07:08:43;;;;;;;15.63;10.63;;;2.30;99.90;;;;;;5051352;28;20517;-74
2020/12/01 07:11:27;;;;;;;12.63;9.30;;;2.30;99.90;;;;;;5053549;28;20713;-73
2020/12/01 07:13:57;;;;;;;14.00;8.80;;;2.30;99.90;;;;;;5061771;28;20586;-73
2020/12/01 07:16:47;;;;;;;14.68;8.80;;;2.30;99.90;;;;;;5053351;28;20187;-73
2020/12/01 07:19:17;;;;;;;18.65;9.98;;;2.30;99.90;;;;;;5047510;28;20225;-73
2020/12/01 07:22:02;;;;;;;14.95;9.88;;;2.30;99.90;;;;;;5053861;28;20533;-74
2020/12/01 07:24:30;;;;;;;21.00;10.57;;;2.30;99.90;;;;;;5052875;28;20658;-74
2020/12/01 07:27:17;;;;;;;13.35;8.23;;;2.30;99.90;;;;;;5052058;28;20179;-73
2020/12/01 07:30:11;;;;;;;16.10;8.88;;;2.30;99.90;;;;;;5064682;28;20193;-73
2020/12/01 07:32:58;;;;;;;12.18;7.80;;;2.30;99.90;;;;;;5049067;28;20179;-74
2020/12/01 07:35:32;;;;;;;12.52;7.45;;;2.30;99.90;;;;;;5048416;28;20191;-73
2020/12/01 07:37:58;;;;;;;16.23;9.30;;;2.30;99.90;;;;;;5050287;28;20546;-73
2020/12/01 07:40:27;;;;;;;12.70;7.90;;;2.30;99.90;;;;;;5049937;28;20193;-74
2020/12/01 07:42:59;;;;;;;13.98;7.95;;;2.30;99.90;;;;;;5049328;28;20251;-73
2020/12/01 07:45:24;;;;;;;16.58;7.70;;;2.30;99.90;;;;;;5052036;28;20193;-73
2020/12/01 07:48:00;;;;;;;18.17;8.40;;;2.40;99.90;;;;;;5051325;28;20597;-73
2020/12/01 07:50:27;;;;;;;16.92;8.70;;;2.40;99.90;;;;;;5050064;28;20247;-73
2020/12/01 07:52:58;;;;;;;14.10;8.90;;;2.50;99.90;;;;;;5048487;28;20187;-73
2020/12/01 07:55:41;;;;;;;11.80;8.40;;;2.50;99.90;;;;;;5046317;28;20659;-76
2020/12/01 07:58:15;;;;;;;12.32;7.68;;;2.50;99.90;;;;;;5052125;28;20716;-74
2020/12/01 08:00:41;;;;;;;12.52;7.90;;;2.60;99.90;;;;;;5047337;28;20191;-73
2020/12/01 08:03:16;;;;;;;11.97;7.73;;;2.50;99.90;;;;;;5053754;28;20718;-74
2020/12/01 08:05:42;;;;;;;10.23;8.23;;;2.60;99.90;;;;;;5050443;28;20674;-75
2020/12/01 08:08:14;;;;;;;11.63;7.20;;;2.60;99.90;;;;;;5062244;28;20225;-74
2020/12/01 08:10:40;;;;;;;7.88;6.38;;;2.60;99.90;;;;;;5050384;28;20507;-74
2020/12/01 08:13:07;;;;;;;9.27;6.35;;;2.60;99.90;;;;;;5054739;28;20197;-73
2020/12/01 08:15:32;;;;;;;7.43;5.55;;;2.60;99.90;;;;;;5047631;28;20179;-76
2020/12/01 08:18:04;;;;;;;9.87;5.73;;;2.70;99.90;;;;;;5053472;28;20190;-73
2020/12/01 08:20:30;;;;;;;7.63;6.03;;;2.70;99.90;;;;;;5053087;28;20190;-74
2020/12/01 08:23:07;;;;;;;11.98;7.00;;;2.70;99.90;;;;;;5053142;28;20680;-73
2020/12/01 08:25:35;;;;;;;10.30;6.70;;;2.70;99.90;;;;;;5051955;28;20552;-73
2020/12/01 08:28:23;;;;;;;10.57;5.85;;;2.70;99.90;;;;;;5053507;28;20182;-73
2020/12/01 08:31:09;;;;;;;9.63;6.60;;;2.70;99.90;;;;;;5046243;28;20289;-74
2020/12/01 08:34:03;;;;;;;9.88;6.55;;;2.70;99.90;;;;;;5053279;28;20672;-74
2020/12/01 08:36:55;;;;;;;5.75;5.20;;;2.70;99.90;;;;;;5053135;28;20190;-74
2020/12/01 08:39:27;;;;;;;8.15;5.70;;;2.70;99.90;;;;;;5053053;28;20588;-74
2020/12/01 08:42:11;;;;;;;10.43;6.57;;;2.70;99.90;;;;;;5044660;28;20672;-74
2020/12/01 08:44:46;;;;;;;6.30;4.43;;;2.70;99.90;;;;;;5052891;28;20261;-74
2020/12/01 08:47:11;;;;;;;8.60;5.68;;;2.70;99.90;;;;;;5052881;28;20237;-74
2020/12/01 08:49:43;;;;;;;6.50;4.30;;;2.70;99.90;;;;;;5051982;28;20244;-74
2020/12/01 08:52:42;;;;;;;7.00;4.90;;;2.80;99.90;;;;;;5053006;28;20179;-74
2020/12/01 08:55:25;;;;;;;5.28;4.53;;;2.80;99.90;;;;;;5034674;28;20282;-74
2020/12/01 08:58:04;;;;;;;5.30;4.15;;;2.80;99.90;;;;;;5052409;28;20549;-74
2020/12/01 09:00:33;;;;;;;8.07;5.35;;;2.90;99.90;;;;;;5052902;28;20186;-74
2020/12/01 09:03:07;;;;;;;8.25;5.05;;;2.90;99.90;;;;;;5044980;28;20179;-74
2020/12/01 09:05:44;;;;;;;4.75;4.22;;;2.90;99.90;;;;;;5052763;28;20178;-74
2020/12/01 09:08:23;;;;;;;6.80;4.28;;;2.90;99.90;;;;;;5045972;28;20186;-74
2020/12/01 09:10:49;;;;;;;6.38;4.72;;;3.00;99.90;;;;;;5051120;28;20650;-74
2020/12/01 09:13:26;;;;;;;5.07;4.13;;;3.00;99.90;;;;;;5051402;28;20189;-74
2020/12/01 09:16:18;;;;;;;4.88;3.63;;;3.00;99.90;;;;;;5052540;28;20186;-74
2020/12/01 09:19:14;;;;;;;5.05;4.55;;;3.10;99.90;;;;;;5052111;28;20218;-74
2020/12/01 09:21:52;;;;;;;5.78;4.60;;;3.10;99.90;;;;;;5052516;28;20257;-74
2020/12/01 09:24:23;;;;;;;6.93;4.80;;;3.10;99.90;;;;;;5045900;28;20214;-74
2020/12/01 09:27:18;;;;;;;12.38;6.82;;;3.20;99.90;;;;;;5052291;28;20186;-74
2020/12/01 09:29:48;;;;;;;8.90;5.40;;;3.20;99.90;;;;;;5051811;28;20205;-74
2020/12/01 09:32:20;;;;;;;8.55;4.50;;;3.20;99.90;;;;;;5046200;28;20553;-74
2020/12/01 09:34:46;;;;;;;5.20;4.53;;;3.20;99.90;;;;;;5051995;28;20178;-75
2020/12/01 09:37:13;;;;;;;9.40;5.65;;;3.20;99.90;;;;;;5052394;28;20210;-74
2020/12/01 09:39:38;;;;;;;6.38;4.38;;;3.10;99.90;;;;;;5052156;28;20237;-74
2020/12/01 09:47:10;;;;;;;5.50;3.90;;;3.20;99.90;;;;;;5051969;28;20233;-74
2020/12/01 09:49:36;;;;;;;4.75;3.05;;;3.20;99.90;;;;;;5052304;28;20657;-74
2020/12/01 09:52:09;;;;;;;4.80;4.10;;;3.20;99.90;;;;;;5051972;28;20187;-74
2020/12/01 09:54:42;;;;;;;4.45;4.05;;;3.20;99.90;;;;;;5052034;28;20611;-74
2020/12/01 09:59:52;;;;;;;8.80;6.80;;;3.20;99.90;;;;;;5052016;28;20246;-75
2020/12/01 10:05:18;;;;;;;8.57;6.90;;;3.30;99.90;;;;;;5051873;28;20196;-74
2020/12/01 10:12:57;;;;;;;10.43;7.80;;;3.20;99.90;;;;;;5052031;28;20657;-75
2020/12/01 10:21:17;;;;;;;8.10;5.75;;;3.30;99.90;;;;;;5053160;28;20650;-75
2020/12/01 10:31:56;;;;;;;7.47;5.88;;;3.30;99.90;;;;;;5051912;28;20685;-75
2020/12/01 10:34:22;;;;;;;6.13;5.55;;;3.30;99.90;;;;;;5048641;28;20737;-75
2020/12/01 10:36:51;;;;;;;6.55;5.93;;;3.40;99.90;;;;;;5051556;28;20277;-75
2020/12/01 10:39:17;;;;;;;5.95;5.25;;;3.40;99.90;;;;;;5051204;28;20705;-75
2020/12/01 10:41:42;;;;;;;7.77;5.97;;;3.40;99.90;;;;;;5051649;28;20183;-75
2020/12/01 10:44:08;;;;;;;6.37;5.77;;;3.40;99.90;;;;;;5051558;28;20191;-75
2020/12/01 10:46:34;;;;;;;7.77;6.17;;;3.40;99.90;;;;;;5051482;28;20182;-75
2020/12/01 10:49:00;;;;;;;5.45;4.72;;;3.40;99.90;;;;;;5051735;28;20209;-74
2020/12/01 10:51:26;;;;;;;8.13;4.30;;;3.50;99.90;;;;;;5051450;28;20642;-74
2020/12/01 10:53:52;;;;;;;5.83;4.10;;;3.50;99.90;;;;;;5051790;28;20440;-75
2020/12/01 10:56:18;;;;;;;5.17;4.57;;;3.50;99.90;;;;;;5051339;28;20187;-75
2020/12/01 10:58:43;;;;;;;5.67;4.70;;;3.50;99.90;;;;;;5051503;28;20477;-75
2020/12/01 11:01:09;;;;;;;4.87;4.43;;;3.60;99.90;;;;;;5051181;28;20531;-74
2020/12/01 11:03:34;;;;;;;6.43;4.70;;;3.50;99.90;;;;;;5051611;28;20178;-74
2020/12/01 11:06:00;;;;;;;8.40;5.17;;;3.50;99.90;;;;;;5051577;28;20275;-74
2020/12/01 11:08:25;;;;;;;5.00;3.90;;;3.50;99.90;;;;;;5051251;28;20551;-75
2020/12/01 11:10:52;;;;;;;7.03;5.90;;;3.60;99.90;;;;;;5051291;28;20187;-74
2020/12/01 11:13:18;;;;;;;8.32;5.90;;;3.60;99.90;;;;;;5053971;28;20193;-75
2020/12/01 11:15:43;;;;;;;6.37;5.83;;;3.50;99.90;;;;;;5055119;28;20174;-74
2020/12/01 11:18:09;;;;;;;6.17;5.57;;;3.50;99.90;;;;;;5054965;28;20700;-74
2020/12/01 11:20:34;;;;;;;7.30;5.87;;;3.60;99.90;;;;;;5054980;28;20598;-75
2020/12/01 11:23:00;;;;;;;10.00;6.30;;;3.60;99.90;;;;;;5054744;28;20182;-75
2020/12/01 11:25:26;;;;;;;9.70;7.37;;;3.60;99.90;;;;;;5054601;28;20229;-75
2020/12/01 11:27:51;;;;;;;9.33;6.90;;;3.60;99.90;;;;;;5055166;28;20444;-75
2020/12/01 11:30:19;;;;;;;9.13;7.87;;;3.60;99.90;;;;;;5054531;28;20193;-75
2020/12/01 11:32:45;;;;;;;9.95;7.47;;;3.70;99.90;;;;;;5054301;28;20240;-75
2020/12/01 11:35:13;;;;;;;8.70;7.90;;;3.70;99.90;;;;;;5054461;28;20198;-75
2020/12/01 11:37:39;;;;;;;8.27;7.25;;;3.70;99.90;;;;;;5053817;28;20190;-75
2020/12/01 11:40:06;;;;;;;10.27;7.43;;;3.60;99.90;;;;;;5054296;28;20681;-75
2020/12/01 11:42:32;;;;;;;8.35;6.60;;;3.70;99.90;;;;;;5054089;28;20194;-75
2020/12/01 11:44:58;;;;;;;9.13;5.97;;;3.70;99.90;;;;;;5053838;28;20664;-75
2020/12/01 11:47:23;;;;;;;9.73;6.80;;;3.70;99.90;;;;;;5054055;28;20305;-75
2020/12/01 11:49:49;;;;;;;10.50;7.50;;;3.70;99.90;;;;;;5054415;28;20195;-75
2020/12/01 11:52:14;;;;;;;8.80;7.90;;;3.70;99.90;;;;;;5054610;28;20183;-74
2020/12/01 11:54:40;;;;;;;11.63;7.90;;;3.80;99.90;;;;;;5053940;28;20190;-75
2020/12/01 11:57:05;;;;;;;11.07;7.50;;;3.80;99.90;;;;;;5054217;28;20552;-75
2020/12/01 11:59:31;;;;;;;9.70;7.63;;;3.80;99.90;;;;;;5053880;28;20214;-74
2020/12/01 12:01:56;;;;;;;8.40;6.80;;;3.80;99.90;;;;;;5054154;28;20650;-74
2020/12/01 12:04:22;;;;;;;11.50;8.87;;;3.80;99.90;;;;;;5054132;28;20662;-74
2020/12/01 12:06:48;;;;;;;10.20;8.50;;;3.80;99.90;;;;;;5053721;28;20210;-75
2020/12/01 12:09:14;;;;;;;9.05;7.10;;;3.80;99.90;;;;;;5053960;28;20179;-75
2020/12/01 12:11:39;;;;;;;9.20;6.53;;;3.90;99.90;;;;;;5053738;28;20186;-74
2020/12/01 12:14:06;;;;;;;8.40;6.93;;;3.90;99.90;;;;;;5052091;28;20506;-75
2020/12/01 12:16:32;;;;;;;9.00;6.13;;;3.90;99.90;;;;;;5047986;28;20653;-75
2020/12/01 12:18:58;;;;;;;7.60;6.82;;;3.90;99.90;;;;;;5053580;28;20304;-75
2020/12/01 12:21:24;;;;;;;9.30;7.60;;;3.90;99.90;;;;;;5054245;28;20218;-74
2020/12/01 12:23:50;;;;;;;10.87;8.30;;;4.00;99.90;;;;;;5054761;28;20869;-75
2020/12/01 12:26:15;;;;;;;10.00;7.60;;;3.90;99.90;;;;;;5053900;28;20253;-74
2020/12/01 12:28:41;;;;;;;11.57;7.53;;;3.90;99.90;;;;;;5053396;28;20441;-75
2020/12/01 12:31:08;;;;;;;9.27;7.47;;;3.90;99.90;;;;;;5053107;28;20211;-75
2020/12/01 12:33:33;;;;;;;9.07;7.00;;;3.90;99.90;;;;;;5053302;28;20174;-75
2020/12/01 12:35:59;;;;;;;9.57;7.50;;;3.90;99.90;;;;;;5048994;28;20232;-75
2020/12/01 12:38:26;;;;;;;7.95;6.97;;;3.90;99.90;;;;;;5053152;28;20610;-75
2020/12/01 12:40:52;;;;;;;10.68;7.55;;;3.90;99.90;;;;;;5047824;28;20195;-75
2020/12/01 12:43:19;;;;;;;8.40;7.40;;;3.90;99.90;;;;;;5053379;28;20182;-75
2020/12/01 12:45:45;;;;;;;16.42;10.70;;;3.90;99.90;;;;;;5058654;28;20170;-75
2020/12/01 12:48:10;;;;;;;12.20;9.43;;;3.90;99.90;;;;;;5054895;28;20272;-75
2020/12/01 12:50:36;;;;;;;11.33;9.47;;;3.90;99.90;;;;;;5052232;28;20445;-75
2020/12/01 12:53:01;;;;;;;14.67;10.47;;;4.00;99.90;;;;;;5053254;28;20190;-75
2020/12/01 12:55:27;;;;;;;11.47;8.93;;;4.00;99.90;;;;;;5058641;28;20622;-74
2020/12/01 12:57:53;;;;;;;13.13;10.03;;;4.00;99.90;;;;;;5069704;28;20178;-75
2020/12/01 13:00:19;;;;;;;14.23;8.63;;;3.90;99.90;;;;;;5053746;28;20511;-75
2020/12/01 13:02:44;;;;;;;8.85;7.95;;;3.90;99.90;;;;;;5055102;28;20199;-74
2020/12/01 13:05:10;;;;;;;9.80;8.00;;;4.00;99.90;;;;;;5052230;28;20719;-75
2020/12/01 13:07:35;;;;;;;7.73;6.73;;;4.00;99.90;;;;;;5052827;28;20200;-74
2020/12/01 13:10:01;;;;;;;9.03;6.40;;;4.00;99.90;;;;;;5052651;28;20222;-74
2020/12/01 13:12:26;;;;;;;7.17;6.10;;;4.10;99.90;;;;;;5048096;28;20636;-74
2020/12/01 13:14:52;;;;;;;7.90;5.87;;;4.10;99.90;;;;;;5055245;28;20194;-75
2020/12/01 13:17:17;;;;;;;7.97;6.10;;;4.10;99.90;;;;;;5051969;28;20193;-75
2020/12/01 13:19:44;;;;;;;9.60;7.00;;;4.10;99.90;;;;;;5050911;28;20692;-75
2020/12/01 13:22:10;;;;;;;9.23;6.88;;;4.10;99.90;;;;;;5052369;28;20218;-75
2020/12/01 13:24:35;;;;;;;7.50;6.17;;;4.20;99.90;;;;;;5052887;28;20230;-75
2020/12/01 13:27:01;;;;;;;7.80;6.43;;;4.30;99.90;;;;;;5045169;28;20182;-75
2020/12/01 13:29:26;;;;;;;11.47;8.70;;;4.30;99.90;;;;;;5052405;28;20265;-75
2020/12/01 13:31:52;;;;;;;7.83;7.03;;;4.40;99.90;;;;;;5051126;28;20218;-75
2020/12/01 13:34:18;;;;;;;8.13;7.33;;;4.40;99.90;;;;;;5051791;28;20185;-75